createdAt,value
2019-03-02T00:00:11.665Z,67.69
2019-03-02T00:00:52.277Z,67.31
2019-03-02T00:01:32.870Z,67.31
2019-03-02T00:02:13.444Z,67.5
2019-03-02T00:02:56.725Z,67.21
2019-03-02T00:03:34.828Z,67.59
2019-03-02T00:04:15.176Z,67.69
2019-03-02T00:04:55.740Z,67.4
2019-03-02T00:05:36.311Z,67.31
2019-03-02T00:06:16.886Z,67.69
2019-03-02T00:06:57.536Z,67.4
2019-03-02T00:07:38.087Z,67.4
2019-03-02T00:08:21.765Z,67.5
2019-03-02T00:08:59.853Z,67.5
2019-03-02T00:09:39.782Z,67.59
2019-03-02T00:10:20.347Z,67.59
2019-03-02T00:11:00.905Z,68.16
2019-03-02T00:11:41.465Z,68.16
2019-03-02T00:12:22.027Z,67.97
2019-03-02T00:13:03.837Z,67.97
2019-03-02T00:13:43.342Z,67.79
2019-03-02T00:14:23.737Z,67.59
2019-03-02T00:15:04.292Z,67.31
2019-03-02T00:15:44.871Z,67.5
2019-03-02T00:16:25.464Z,68.26
2019-03-02T00:17:06.074Z,68.07
2019-03-02T00:17:46.639Z,67.21
2019-03-02T00:18:29.055Z,67.5
2019-03-02T00:19:07.947Z,68.16
2019-03-02T00:19:48.347Z,68.16
2019-03-02T00:20:28.939Z,68.26
2019-03-02T00:21:09.523Z,68.16
2019-03-02T00:21:50.078Z,68.73
2019-03-02T00:22:30.643Z,68.35
2019-03-02T00:23:11.231Z,68.44
2019-03-02T00:23:54.226Z,68.44
2019-03-02T00:24:32.372Z,68.07
2019-03-02T00:25:12.941Z,68.35
2019-03-02T00:25:53.511Z,68.16
2019-03-02T00:26:34.087Z,67.88
2019-03-02T00:27:17.753Z,67.69
2019-03-02T00:27:58.102Z,67.59
2019-03-02T00:28:36.388Z,67.59
2019-03-02T00:29:16.374Z,67.88
2019-03-02T00:29:56.948Z,67.79
2019-03-02T00:30:37.512Z,67.79
2019-03-02T00:31:18.098Z,67.59
2019-03-02T00:31:58.678Z,67.69
2019-03-02T00:32:41.498Z,68.35
2019-03-02T00:33:21.038Z,68.16
2019-03-02T00:34:00.392Z,68.16
2019-03-02T00:34:40.963Z,67.97
2019-03-02T00:35:21.546Z,67.79
2019-03-02T00:36:02.121Z,68.07
2019-03-02T00:36:42.732Z,67.97
2019-03-02T00:37:23.296Z,68.16
2019-03-02T00:38:04.780Z,68.35
2019-03-02T00:38:44.458Z,68.44
2019-03-02T00:39:25.023Z,68.07
2019-03-02T00:40:05.591Z,68.35
2019-03-02T00:40:46.178Z,68.26
2019-03-02T00:41:26.753Z,67.97
2019-03-02T00:42:07.357Z,68.73
2019-03-02T00:42:48.711Z,68.73
2019-03-02T00:43:28.536Z,68.16
2019-03-02T00:44:09.146Z,68.26
2019-03-02T00:44:49.716Z,68.23
2019-03-02T00:45:30.277Z,68.26
2019-03-02T00:46:10.841Z,68.44
2019-03-02T00:46:51.430Z,68.07
2019-03-02T00:47:35.206Z,68.04
2019-03-02T00:48:12.586Z,68.26
2019-03-02T00:48:53.159Z,68.16
2019-03-02T00:49:33.757Z,68.44
2019-03-02T00:50:14.309Z,68.35
2019-03-02T00:50:54.876Z,68.07
2019-03-02T00:51:36.523Z,68.26
2019-03-02T00:52:16.020Z,67.97
2019-03-02T00:52:59.096Z,68.35
2019-03-02T00:53:37.151Z,67.97
2019-03-02T00:54:17.719Z,67.97
2019-03-02T00:54:58.586Z,67.97
2019-03-02T00:55:38.879Z,68.07
2019-03-02T00:56:19.468Z,68.35
2019-03-02T00:57:00.059Z,68.26
2019-03-02T00:57:40.586Z,68.41
2019-03-02T00:58:21.172Z,68.7
2019-03-02T00:59:03.891Z,68.64
2019-03-02T00:59:42.321Z,68.51
2019-03-02T01:00:22.864Z,68.41
2019-03-02T01:01:03.470Z,68.44
2019-03-02T01:01:44.035Z,68.73
2019-03-02T01:02:24.639Z,68.51
2019-03-02T01:03:05.198Z,68.41
2019-03-02T01:03:47.672Z,68.44
2019-03-02T01:04:26.885Z,68.23
2019-03-02T01:05:06.967Z,68.32
2019-03-02T01:05:47.543Z,68.64
2019-03-02T01:06:28.101Z,68.7
2019-03-02T01:07:08.658Z,68.26
2019-03-02T01:07:49.267Z,68.54
2019-03-02T01:08:31.740Z,68.7
2019-03-02T01:09:11.647Z,68.54
2019-03-02T01:09:50.964Z,68.23
2019-03-02T01:10:31.547Z,68.54
2019-03-02T01:11:12.165Z,68.54
2019-03-02T01:11:52.745Z,68.54
2019-03-02T01:12:33.318Z,68.44
2019-03-02T01:13:16.747Z,68.41
2019-03-02T01:13:56.808Z,68.64
2019-03-02T01:14:35.049Z,68.44
2019-03-02T01:15:15.629Z,68.44
2019-03-02T01:15:56.192Z,68.44
2019-03-02T01:16:36.773Z,68.44
2019-03-02T01:17:17.329Z,68.44
2019-03-02T01:17:57.889Z,68.44
2019-03-02T01:18:38.624Z,68.54
2019-03-02T01:19:19.033Z,68.41
2019-03-02T01:19:59.617Z,68.35
2019-03-02T01:20:40.984Z,68.51
2019-03-02T01:21:21.561Z,68.23
2019-03-02T01:22:02.150Z,68.41
2019-03-02T01:22:42.740Z,68.44
2019-03-02T01:23:23.711Z,68.32
2019-03-02T01:24:04.521Z,68.44
2019-03-02T01:24:44.499Z,68.54
2019-03-02T01:25:25.064Z,68.41
2019-03-02T01:26:05.632Z,68.44
2019-03-02T01:26:46.212Z,68.44
2019-03-02T01:27:26.792Z,68.83
2019-03-02T01:28:09.647Z,68.6
2019-03-02T01:28:47.913Z,68.73
2019-03-02T01:29:28.468Z,68.51
2019-03-02T01:30:09.040Z,68.44
2019-03-02T01:30:49.608Z,68.23
2019-03-02T01:31:30.183Z,68.23
2019-03-02T01:32:12.619Z,68.44
2019-03-02T01:32:52.598Z,68.54
2019-03-02T01:33:31.880Z,68.73
2019-03-02T01:34:12.444Z,68.7
2019-03-02T01:34:53.012Z,68.7
2019-03-02T01:35:33.706Z,69.11
2019-03-02T01:36:14.289Z,68.54
2019-03-02T01:36:54.878Z,68.7
2019-03-02T01:37:35.447Z,68.64
2019-03-02T01:38:18.581Z,68.7
2019-03-02T01:38:56.609Z,68.73
2019-03-02T01:39:37.169Z,69.08
2019-03-02T01:40:17.736Z,68.7
2019-03-02T01:40:58.293Z,68.6
2019-03-02T01:41:38.846Z,69.17
2019-03-02T01:42:19.436Z,69.11
2019-03-02T01:43:01.905Z,68.7
2019-03-02T01:43:41.442Z,68.64
2019-03-02T01:44:21.228Z,68.54
2019-03-02T01:45:01.791Z,68.54
2019-03-02T01:45:42.360Z,68.7
2019-03-02T01:46:22.927Z,68.64
2019-03-02T01:47:03.499Z,68.54
2019-03-02T01:47:44.069Z,68.7
2019-03-02T01:48:26.475Z,68.51
2019-03-02T01:49:05.232Z,68.51
2019-03-02T01:49:45.801Z,68.73
2019-03-02T01:50:26.386Z,68.64
2019-03-02T01:51:06.946Z,68.64
2019-03-02T01:51:47.553Z,68.51
2019-03-02T01:52:30.475Z,68.41
2019-03-02T01:53:09.859Z,68.35
2019-03-02T01:53:49.222Z,68.44
2019-03-02T01:54:29.808Z,68.64
2019-03-02T01:55:10.358Z,68.7
2019-03-02T01:55:50.945Z,68.64
2019-03-02T01:56:31.509Z,68.92
2019-03-02T01:57:13.689Z,68.54
2019-03-02T01:57:53.191Z,68.64
2019-03-02T01:58:33.283Z,68.64
2019-03-02T01:59:13.853Z,68.7
2019-03-02T01:59:54.430Z,68.89
2019-03-02T02:00:34.987Z,68.6
2019-03-02T02:01:15.575Z,68.98
2019-03-02T02:01:56.480Z,68.64
2019-03-02T02:02:37.238Z,69.08
2019-03-02T02:03:17.765Z,69.11
2019-03-02T02:03:58.335Z,69.11
2019-03-02T02:04:38.938Z,69.17
2019-03-02T02:05:19.499Z,69.21
2019-03-02T02:06:00.078Z,69.17
2019-03-02T02:06:42.737Z,69.27
2019-03-02T02:07:21.257Z,68.92
2019-03-02T02:08:01.815Z,69.27
2019-03-02T02:08:42.419Z,69.27
2019-03-02T02:09:23.016Z,69.11
2019-03-02T02:10:03.594Z,68.89
2019-03-02T02:10:44.316Z,69.27
2019-03-02T02:11:24.738Z,69.17
2019-03-02T02:12:05.340Z,68.83
2019-03-02T02:12:45.909Z,69.08
2019-03-02T02:13:26.494Z,68.73
2019-03-02T02:14:07.043Z,69.21
2019-03-02T02:14:50.861Z,69.3
2019-03-02T02:15:29.296Z,69.21
2019-03-02T02:16:08.786Z,68.92
2019-03-02T02:16:49.411Z,69.11
2019-03-02T02:17:29.991Z,69.21
2019-03-02T02:18:10.573Z,69.27
2019-03-02T02:18:51.181Z,68.7
2019-03-02T02:19:34.696Z,69.02
2019-03-02T02:20:14.503Z,68.64
2019-03-02T02:20:52.877Z,68.73
2019-03-02T02:21:33.442Z,69.21
2019-03-02T02:22:14.009Z,68.92
2019-03-02T02:22:54.609Z,69.08
2019-03-02T02:23:35.205Z,69.02
2019-03-02T02:24:15.790Z,69.11
2019-03-02T02:24:56.734Z,68.92
2019-03-02T02:25:36.941Z,69.3
2019-03-02T02:26:17.528Z,69.11
2019-03-02T02:26:58.085Z,68.92
2019-03-02T02:27:38.692Z,68.83
2019-03-02T02:28:19.278Z,69.4
2019-03-02T02:28:59.866Z,69.21
2019-03-02T02:29:40.594Z,68.89
2019-03-02T02:30:24.264Z,68.79
2019-03-02T02:31:06.004Z,69.11
2019-03-02T02:31:44.963Z,69.3
2019-03-02T02:32:23.913Z,68.54
2019-03-02T02:33:05.421Z,68.64
2019-03-02T02:33:44.604Z,68.64
2019-03-02T02:34:24.414Z,69.21
2019-03-02T02:35:04.983Z,69.11
2019-03-02T02:35:45.554Z,68.73
2019-03-02T02:36:26.107Z,68.73
2019-03-02T02:37:06.663Z,68.73
2019-03-02T02:37:47.237Z,68.92
2019-03-02T02:38:27.792Z,68.41
2019-03-02T02:39:08.370Z,68.26
2019-03-02T02:39:48.929Z,68.41
2019-03-02T02:40:29.506Z,68.7
2019-03-02T02:41:10.058Z,69.08
2019-03-02T02:41:50.636Z,68.98
2019-03-02T02:42:31.207Z,69.55
2019-03-02T02:43:11.780Z,69.36
2019-03-02T02:43:54.117Z,69.17
2019-03-02T02:44:37.108Z,69.27
2019-03-02T02:45:15.134Z,69.27
2019-03-02T02:45:55.193Z,69.17
2019-03-02T02:46:34.624Z,69.17
2019-03-02T02:47:15.202Z,69.17
2019-03-02T02:47:55.755Z,69.84
2019-03-02T02:48:36.347Z,69.84
2019-03-02T02:49:16.921Z,69.84
2019-03-02T02:49:57.473Z,69.84
2019-03-02T02:50:38.035Z,69.65
2019-03-02T02:51:18.604Z,69.84
2019-03-02T02:51:59.180Z,69.84
2019-03-02T02:52:39.760Z,69.93
2019-03-02T02:53:20.329Z,70.31
2019-03-02T02:54:00.891Z,70.21
2019-03-02T02:54:41.453Z,70.03
2019-03-02T02:55:22.019Z,70.5
2019-03-02T02:56:02.593Z,70.4
2019-03-02T02:56:43.153Z,70.78
2019-03-02T02:57:23.713Z,70.59
2019-03-02T02:58:04.323Z,70.4
2019-03-02T02:58:44.875Z,70.5
2019-03-02T02:59:25.440Z,70.69
2019-03-02T03:00:05.983Z,70.88
2019-03-02T03:00:49.990Z,70.78
2019-03-02T03:01:32.741Z,70.5
2019-03-02T03:02:10.705Z,70.69
2019-03-02T03:02:48.233Z,70.98
2019-03-02T03:03:28.814Z,70.98
2019-03-02T03:04:09.389Z,70.5
2019-03-02T03:04:49.931Z,70.5
2019-03-02T03:05:30.512Z,70.59
2019-03-02T03:06:11.086Z,70.4
2019-03-02T03:06:51.658Z,70.5
2019-03-02T03:07:32.219Z,70.5
2019-03-02T03:08:12.807Z,70.98
2019-03-02T03:08:53.391Z,70.69
2019-03-02T03:09:33.948Z,70.69
2019-03-02T03:10:14.585Z,70.88
2019-03-02T03:10:55.123Z,70.78
2019-03-02T03:11:43.524Z,70.5
2019-03-02T03:12:17.821Z,70.4
2019-03-02T03:13:01.809Z,70.4
2019-03-02T03:13:40.550Z,70.21
2019-03-02T03:14:19.775Z,70.4
2019-03-02T03:14:59.634Z,70.4
2019-03-02T03:15:39.137Z,70.78
2019-03-02T03:16:19.709Z,70.69
2019-03-02T03:17:00.318Z,70.69
2019-03-02T03:17:40.913Z,70.98
2019-03-02T03:18:21.542Z,71.07
2019-03-02T03:19:02.104Z,71.17
2019-03-02T03:19:42.668Z,71.36
2019-03-02T03:20:23.236Z,71.17
2019-03-02T03:21:03.779Z,71.07
2019-03-02T03:21:44.325Z,71.07
2019-03-02T03:22:24.881Z,71.07
2019-03-02T03:23:05.437Z,70.88
2019-03-02T03:23:46.045Z,70.78
2019-03-02T03:24:26.630Z,70.98
2019-03-02T03:25:07.206Z,70.88
2019-03-02T03:25:55.870Z,70.69
2019-03-02T03:26:30.805Z,70.98
2019-03-02T03:27:12.915Z,70.98
2019-03-02T03:27:51.715Z,70.98
2019-03-02T03:28:32.153Z,71.07
2019-03-02T03:29:11.130Z,71.07
2019-03-02T03:29:51.382Z,70.98
2019-03-02T03:30:36.033Z,71.26
2019-03-02T03:31:20.807Z,71.64
2019-03-02T03:31:53.065Z,71.55
2019-03-02T03:32:33.613Z,71.45
2019-03-02T03:33:14.238Z,71.83
2019-03-02T03:33:54.800Z,71.73
2019-03-02T03:34:35.426Z,71.83
2019-03-02T03:35:17.366Z,71.83
2019-03-02T03:35:57.686Z,71.55
2019-03-02T03:36:37.151Z,72.4
2019-03-02T03:37:17.733Z,71.83
2019-03-02T03:37:58.318Z,72.11
2019-03-02T03:38:38.951Z,72.11
2019-03-02T03:39:19.531Z,72.3
2019-03-02T03:40:00.140Z,72.02
2019-03-02T03:40:40.701Z,72.3
2019-03-02T03:41:21.289Z,72.02
2019-03-02T03:42:01.881Z,72.49
2019-03-02T03:42:42.430Z,72.21
2019-03-02T03:43:23.000Z,71.92
2019-03-02T03:44:03.554Z,72.11
2019-03-02T03:44:44.144Z,72.02
2019-03-02T03:45:24.708Z,71.92
2019-03-02T03:46:05.299Z,72.02
2019-03-02T03:46:45.870Z,71.92
2019-03-02T03:47:26.431Z,72.68
2019-03-02T03:48:07.013Z,72.88
2019-03-02T03:48:51.213Z,73.35
2019-03-02T03:49:29.924Z,73.35
2019-03-02T03:50:09.083Z,73.16
2019-03-02T03:50:52.281Z,73.25
2019-03-02T03:51:30.656Z,72.78
2019-03-02T03:52:10.946Z,73.35
2019-03-02T03:52:51.077Z,73.16
2019-03-02T03:53:32.032Z,73.35
2019-03-02T03:54:12.216Z,73.25
2019-03-02T03:54:52.792Z,73.72
2019-03-02T03:55:33.385Z,73.25
2019-03-02T03:56:13.945Z,73.07
2019-03-02T03:56:54.513Z,73.25
2019-03-02T03:57:35.095Z,73.54
2019-03-02T03:58:15.673Z,73.63
2019-03-02T03:58:56.245Z,73.16
2019-03-02T03:59:36.809Z,73.82
2019-03-02T04:00:17.391Z,73.54
2019-03-02T04:00:57.979Z,73.54
2019-03-02T04:01:38.541Z,73.72
2019-03-02T04:02:19.129Z,73.35
2019-03-02T04:02:59.705Z,73.63
2019-03-02T04:03:40.277Z,73.16
2019-03-02T04:04:24.624Z,73.25
2019-03-02T04:05:06.806Z,73.35
2019-03-02T04:05:46.894Z,73.16
2019-03-02T04:06:23.288Z,73.44
2019-03-02T04:07:06.209Z,73.44
2019-03-02T04:07:48.128Z,73.35
2019-03-02T04:08:28.715Z,73.54
2019-03-02T04:09:08.206Z,73.92
2019-03-02T04:09:46.811Z,73.54
2019-03-02T04:10:27.742Z,73.35
2019-03-02T04:11:06.704Z,73.54
2019-03-02T04:11:47.263Z,73.25
2019-03-02T04:12:27.843Z,73.44
2019-03-02T04:13:08.417Z,73.63
2019-03-02T04:13:49.020Z,73.72
2019-03-02T04:14:29.583Z,73.54
2019-03-02T04:15:10.172Z,73.54
2019-03-02T04:15:50.755Z,73.72
2019-03-02T04:16:31.347Z,73.54
2019-03-02T04:17:11.928Z,73.35
2019-03-02T04:17:52.568Z,73.92
2019-03-02T04:18:33.139Z,74.2
2019-03-02T04:19:13.731Z,73.92
2019-03-02T04:19:54.309Z,74.01
2019-03-02T04:20:34.908Z,73.63
2019-03-02T04:21:15.487Z,73.82
2019-03-02T04:21:56.057Z,73.44
2019-03-02T04:22:39.800Z,73.72
2019-03-02T04:23:17.984Z,73.72
2019-03-02T04:24:01.102Z,73.44
2019-03-02T04:24:39.508Z,73.54
2019-03-02T04:25:19.551Z,74.3
2019-03-02T04:25:59.484Z,74.39
2019-03-02T04:26:40.060Z,74.3
2019-03-02T04:27:20.659Z,74.11
2019-03-02T04:28:01.238Z,74.01
2019-03-02T04:28:41.842Z,74.39
2019-03-02T04:29:22.438Z,73.92
2019-03-02T04:30:03.003Z,73.63
2019-03-02T04:30:43.571Z,73.72
2019-03-02T04:31:24.178Z,73.63
2019-03-02T04:32:04.756Z,73.54
2019-03-02T04:32:45.390Z,73.92
2019-03-02T04:33:26.004Z,74.3
2019-03-02T04:34:06.618Z,74.2
2019-03-02T04:34:47.226Z,74.01
2019-03-02T04:35:29.910Z,73.44
2019-03-02T04:36:09.971Z,73.63
2019-03-02T04:36:49.248Z,73.63
2019-03-02T04:37:29.565Z,73.92
2019-03-02T04:38:10.120Z,74.3
2019-03-02T04:38:50.710Z,74.2
2019-03-02T04:39:31.270Z,74.2
2019-03-02T04:40:11.858Z,74.11
2019-03-02T04:40:52.428Z,74.2
2019-03-02T04:41:35.560Z,74.11
2019-03-02T04:42:14.559Z,74.11
2019-03-02T04:42:54.212Z,74.11
2019-03-02T04:43:34.790Z,74.01
2019-03-02T04:44:15.365Z,74.2
2019-03-02T04:44:55.987Z,74.01
2019-03-02T04:45:39.662Z,74.11
2019-03-02T04:46:17.165Z,73.92
2019-03-02T04:46:57.744Z,74.01
2019-03-02T04:47:38.329Z,74.2
2019-03-02T04:48:18.912Z,74.2
2019-03-02T04:48:59.485Z,73.92
2019-03-02T04:49:40.074Z,73.92
2019-03-02T04:50:23.470Z,74.49
2019-03-02T04:51:02.547Z,74.49
2019-03-02T04:51:41.765Z,74.68
2019-03-02T04:52:22.349Z,75.34
2019-03-02T04:53:02.945Z,75.34
2019-03-02T04:53:43.492Z,75.34
2019-03-02T04:54:24.053Z,75.72
2019-03-02T04:55:04.628Z,75.59
2019-03-02T04:55:45.616Z,75.59
2019-03-02T04:56:25.765Z,75.43
2019-03-02T04:57:06.346Z,75.72
2019-03-02T04:57:46.908Z,75.62
2019-03-02T04:58:27.471Z,75.31
2019-03-02T04:59:08.066Z,75.31
2019-03-02T04:59:48.665Z,75.78
2019-03-02T05:00:31.909Z,75.68
2019-03-02T05:01:09.818Z,75.68
2019-03-02T05:01:50.417Z,75.78
2019-03-02T05:02:30.986Z,75.49
2019-03-02T05:03:11.589Z,75.59
2019-03-02T05:03:53.679Z,76.34
2019-03-02T05:04:33.158Z,75.68
2019-03-02T05:05:13.342Z,75.59
2019-03-02T05:05:53.955Z,75.78
2019-03-02T05:06:34.548Z,76.44
2019-03-02T05:07:15.135Z,75.96
2019-03-02T05:07:55.705Z,76.25
2019-03-02T05:08:37.443Z,76.82
2019-03-02T05:09:17.091Z,76.54
2019-03-02T05:09:57.411Z,76.25
2019-03-02T05:10:38.007Z,76.34
2019-03-02T05:11:18.591Z,76.73
2019-03-02T05:11:59.185Z,76.82
2019-03-02T05:12:39.767Z,76.67
2019-03-02T05:13:20.345Z,76.82
2019-03-02T05:14:04.238Z,76.63
2019-03-02T05:14:41.503Z,76.76
2019-03-02T05:15:22.115Z,76.73
2019-03-02T05:16:02.690Z,76.57
2019-03-02T05:16:43.284Z,76.44
2019-03-02T05:17:23.876Z,76.48
2019-03-02T05:18:04.493Z,76.39
2019-03-02T05:18:45.084Z,75.91
2019-03-02T05:19:29.053Z,76.2
2019-03-02T05:20:06.190Z,76.39
2019-03-02T05:20:46.777Z,76.39
2019-03-02T05:21:27.321Z,76.1
2019-03-02T05:22:07.883Z,76.1
2019-03-02T05:22:50.661Z,76.48
2019-03-02T05:23:30.532Z,75.91
2019-03-02T05:24:10.193Z,75.96
2019-03-02T05:24:50.245Z,76.39
2019-03-02T05:25:30.816Z,76.76
2019-03-02T05:26:11.406Z,76.44
2019-03-02T05:26:53.447Z,76.82
2019-03-02T05:27:32.970Z,76.25
2019-03-02T05:28:13.139Z,76.63
2019-03-02T05:28:53.746Z,76.48
2019-03-02T05:29:34.332Z,76.54
2019-03-02T05:30:14.936Z,76.57
2019-03-02T05:30:55.496Z,76.63
2019-03-02T05:31:37.504Z,76.57
2019-03-02T05:32:16.763Z,76.54
2019-03-02T05:32:57.206Z,76.73
2019-03-02T05:33:37.792Z,76.67
2019-03-02T05:34:18.383Z,76.76
2019-03-02T05:34:58.994Z,77.05
2019-03-02T05:35:39.562Z,77.01
2019-03-02T05:36:22.873Z,76.95
2019-03-02T05:37:02.798Z,76.95
2019-03-02T05:37:41.283Z,77.52
2019-03-02T05:38:21.845Z,77.05
2019-03-02T05:39:02.430Z,77.43
2019-03-02T05:39:43.007Z,77.05
2019-03-02T05:40:24.380Z,76.95
2019-03-02T05:41:04.178Z,76.95
2019-03-02T05:41:44.741Z,76.67
2019-03-02T05:42:25.284Z,76.67
2019-03-02T05:43:05.877Z,76.67
2019-03-02T05:43:46.518Z,76.48
2019-03-02T05:44:27.082Z,76.29
2019-03-02T05:45:07.626Z,76.57
2019-03-02T05:45:48.193Z,76.57
2019-03-02T05:46:28.746Z,76.67
2019-03-02T05:47:09.331Z,76.95
2019-03-02T05:47:49.880Z,77.14
2019-03-02T05:48:30.462Z,77.05
2019-03-02T05:49:11.031Z,76.82
2019-03-02T05:49:54.541Z,77.2
2019-03-02T05:50:32.190Z,77.05
2019-03-02T05:51:12.808Z,76.63
2019-03-02T05:51:53.355Z,77.11
2019-03-02T05:52:33.950Z,77.29
2019-03-02T05:53:14.528Z,77.71
2019-03-02T05:53:55.095Z,77.58
2019-03-02T05:54:38.519Z,77.52
2019-03-02T05:55:17.949Z,77.52
2019-03-02T05:55:56.783Z,77.62
2019-03-02T05:56:37.403Z,77.52
2019-03-02T05:57:17.987Z,77.71
2019-03-02T05:57:58.568Z,77.81
2019-03-02T05:58:39.165Z,77.81
2019-03-02T05:59:22.760Z,77.43
2019-03-02T06:00:01.641Z,77.33
2019-03-02T06:00:40.900Z,77.52
2019-03-02T06:01:21.463Z,77.62
2019-03-02T06:02:02.056Z,77.62
2019-03-02T06:02:42.647Z,77.52
2019-03-02T06:03:23.264Z,77.71
2019-03-02T06:04:03.844Z,77.52
2019-03-02T06:04:45.843Z,77.62
2019-03-02T06:05:25.058Z,77.52
2019-03-02T06:06:05.616Z,77.71
2019-03-02T06:06:46.161Z,77.62
2019-03-02T06:07:26.743Z,77.62
2019-03-02T06:08:07.298Z,77.62
2019-03-02T06:08:47.896Z,77.81
2019-03-02T06:09:28.458Z,77.43
2019-03-02T06:10:09.033Z,77.81
2019-03-02T06:10:49.645Z,77.71
2019-03-02T06:11:30.229Z,77.81
2019-03-02T06:12:11.785Z,77.52
2019-03-02T06:12:52.729Z,77.9
2019-03-02T06:13:31.953Z,78
2019-03-02T06:14:12.554Z,78
2019-03-02T06:14:53.111Z,77.81
2019-03-02T06:15:33.688Z,78
2019-03-02T06:16:15.327Z,77.9
2019-03-02T06:16:57.317Z,77.9
2019-03-02T06:17:35.442Z,78
2019-03-02T06:18:16.024Z,77.71
2019-03-02T06:18:56.587Z,77.9
2019-03-02T06:19:37.151Z,77.9
2019-03-02T06:20:17.718Z,77.71
2019-03-02T06:20:58.271Z,77.62
2019-03-02T06:21:38.862Z,77.43
2019-03-02T06:22:21.054Z,77.9
2019-03-02T06:22:59.998Z,77.62
2019-03-02T06:23:40.562Z,77.52
2019-03-02T06:24:21.142Z,77.52
2019-03-02T06:25:01.713Z,78.09
2019-03-02T06:25:42.268Z,77.62
2019-03-02T06:26:22.831Z,77.62
2019-03-02T06:27:03.392Z,77.62
2019-03-02T06:27:47.004Z,78.09
2019-03-02T06:28:24.555Z,77.33
2019-03-02T06:29:05.145Z,77.52
2019-03-02T06:29:45.702Z,77.62
2019-03-02T06:30:26.285Z,77.81
2019-03-02T06:31:06.878Z,77.62
2019-03-02T06:31:50.570Z,77.71
2019-03-02T06:32:29.835Z,77.52
2019-03-02T06:33:09.397Z,77.52
2019-03-02T06:33:49.176Z,77.52
2019-03-02T06:34:29.757Z,77.62
2019-03-02T06:35:10.348Z,77.62
2019-03-02T06:35:50.927Z,77.52
2019-03-02T06:36:31.550Z,77.52
2019-03-02T06:37:12.122Z,78
2019-03-02T06:37:56.095Z,78
2019-03-02T06:38:33.339Z,78.19
2019-03-02T06:39:13.915Z,77.9
2019-03-02T06:39:56.256Z,78
2019-03-02T06:40:35.123Z,78
2019-03-02T06:41:15.698Z,78
2019-03-02T06:41:56.297Z,78
2019-03-02T06:42:36.876Z,78.09
2019-03-02T06:43:17.760Z,77.81
2019-03-02T06:43:58.372Z,78.38
2019-03-02T06:44:38.598Z,78.38
2019-03-02T06:45:19.202Z,78.56
2019-03-02T06:45:59.783Z,78.47
2019-03-02T06:46:40.414Z,78.38
2019-03-02T06:47:21.008Z,78.56
2019-03-02T06:48:01.591Z,78.56
2019-03-02T06:48:45.096Z,78.56
2019-03-02T06:49:22.770Z,78.56
2019-03-02T06:50:03.404Z,78.38
2019-03-02T06:50:43.978Z,78.47
2019-03-02T06:51:24.578Z,77.71
2019-03-02T06:52:05.141Z,78
2019-03-02T06:52:45.727Z,78.66
2019-03-02T06:53:26.314Z,78.28
2019-03-02T06:54:08.911Z,78.28
2019-03-02T06:54:48.259Z,78.47
2019-03-02T06:55:28.051Z,77.9
2019-03-02T06:56:08.632Z,78
2019-03-02T06:56:57.480Z,77.81
2019-03-02T06:57:29.761Z,77.71
2019-03-02T06:58:10.349Z,77.9
2019-03-02T06:58:50.928Z,78
2019-03-02T06:59:31.538Z,77.9
2019-03-02T07:00:13.911Z,77.43
2019-03-02T07:00:52.808Z,77.52
2019-03-02T07:01:33.615Z,78
2019-03-02T07:02:14.467Z,77.9
2019-03-02T07:02:59.350Z,77.71
2019-03-02T07:03:45.821Z,77.71
2019-03-02T07:04:26.168Z,77.9
2019-03-02T07:05:08.562Z,77.52
2019-03-02T07:05:50.843Z,77.62
2019-03-02T07:06:33.505Z,78
2019-03-02T07:07:15.273Z,77.81
2019-03-02T07:07:57.275Z,77.81
2019-03-02T07:08:40.024Z,78
2019-03-02T07:09:22.989Z,77.52
2019-03-02T07:10:05.484Z,77.43
2019-03-02T07:10:48.234Z,77.62
2019-03-02T07:11:33.522Z,77.52
2019-03-02T07:12:13.678Z,77.43
2019-03-02T07:12:57.173Z,77.81
2019-03-02T07:13:38.874Z,78.09
2019-03-02T07:14:20.494Z,78
2019-03-02T07:15:04.945Z,77.33
2019-03-02T07:15:44.981Z,77.52
2019-03-02T07:16:26.167Z,77.71
2019-03-02T07:17:07.437Z,77.81
2019-03-02T07:17:49.429Z,77.43
2019-03-02T07:18:31.774Z,77.62
2019-03-02T07:19:16.666Z,77.62
2019-03-02T07:19:55.431Z,77.81
2019-03-02T07:20:39.789Z,77.43
2019-03-02T07:21:23.641Z,77.71
2019-03-02T07:22:06.335Z,77.81
2019-03-02T07:22:52.209Z,77.81
2019-03-02T07:23:32.330Z,78
2019-03-02T07:24:15.025Z,76.95
2019-03-02T07:24:57.465Z,77.24
2019-03-02T07:25:40.881Z,76.95
2019-03-02T07:26:21.913Z,77.14
2019-03-02T07:27:05.806Z,76.76
2019-03-02T07:27:50.081Z,76.95
2019-03-02T07:28:33.227Z,76.76
2019-03-02T07:29:17.659Z,77.14
2019-03-02T07:29:58.741Z,77.14
2019-03-02T07:30:43.610Z,76.86
2019-03-02T07:31:26.880Z,76.95
2019-03-02T07:32:10.472Z,77.05
2019-03-02T07:32:54.876Z,76.95
2019-03-02T07:33:38.053Z,76.76
2019-03-02T07:34:19.423Z,77.14
2019-03-02T07:35:01.567Z,76.95
2019-03-02T07:35:45.680Z,77.9
2019-03-02T07:36:33.926Z,77.71
2019-03-02T07:37:14.137Z,77.43
2019-03-02T07:37:57.295Z,77.71
2019-03-02T07:38:42.395Z,77.9
2019-03-02T07:39:32.575Z,77.9
2019-03-02T07:40:14.247Z,77.52
2019-03-02T07:40:57.711Z,77.71
2019-03-02T07:41:39.987Z,77.62
2019-03-02T07:42:25.699Z,77.81
2019-03-02T07:43:09.639Z,77.52
2019-03-02T07:43:51.556Z,77.62
2019-03-02T07:44:36.150Z,77.52
2019-03-02T07:45:17.716Z,77.52
2019-03-02T07:46:01.178Z,77.62
2019-03-02T07:46:44.019Z,77.52
2019-03-02T07:47:25.411Z,78
2019-03-02T07:48:09.567Z,78
2019-03-02T07:48:52.885Z,78.66
2019-03-02T07:49:36.174Z,78.09
2019-03-02T07:50:21.812Z,77.9
2019-03-02T07:51:06.519Z,78
2019-03-02T07:51:47.553Z,77.71
2019-03-02T07:52:31.058Z,78.51
2019-03-02T07:53:14.319Z,78.42
2019-03-02T07:53:55.933Z,78.61
2019-03-02T07:54:38.753Z,78.03
2019-03-02T07:55:22.360Z,78.09
2019-03-02T07:56:03.613Z,77.62
2019-03-02T07:56:46.011Z,77.71
2019-03-02T07:57:30.209Z,78.03
2019-03-02T07:58:12.911Z,78.13
2019-03-02T07:58:57.003Z,77.94
2019-03-02T07:59:40.428Z,78.23
2019-03-02T08:00:22.211Z,77.37
2019-03-02T08:01:05.046Z,77.56
2019-03-02T08:01:52.497Z,77.84
2019-03-02T08:02:31.467Z,77.75
2019-03-02T08:03:15.003Z,77.18
2019-03-02T08:03:59.602Z,76.71
2019-03-02T08:04:41.994Z,77.09
2019-03-02T08:05:26.189Z,77.09
2019-03-02T08:06:08.267Z,76.99
2019-03-02T08:06:51.700Z,77.18
2019-03-02T08:07:38.000Z,77.09
2019-03-02T08:08:17.727Z,77.18
2019-03-02T08:09:01.097Z,77.37
2019-03-02T08:09:44.246Z,77.09
2019-03-02T08:10:26.872Z,76.99
2019-03-02T08:11:10.547Z,77.09
2019-03-02T08:11:52.170Z,77.18
2019-03-02T08:12:33.789Z,76.8
2019-03-02T08:13:18.055Z,76.99
2019-03-02T08:14:00.390Z,76.8
2019-03-02T08:14:44.383Z,76.52
2019-03-02T08:15:27.718Z,76.61
2019-03-02T08:16:12.076Z,76.61
2019-03-02T08:16:54.500Z,76.23
2019-03-02T08:17:39.644Z,76.52
2019-03-02T08:18:21.599Z,75.95
2019-03-02T08:19:05.018Z,76.71
2019-03-02T08:19:49.874Z,76.23
2019-03-02T08:20:35.851Z,76.04
2019-03-02T08:21:18.998Z,76.23
2019-03-02T08:22:01.123Z,76.23
2019-03-02T08:22:46.222Z,76.23
2019-03-02T08:23:27.528Z,76.14
2019-03-02T08:24:13.125Z,76.23
2019-03-02T08:24:56.397Z,76.14
2019-03-02T08:25:40.106Z,76.42
2019-03-02T08:26:22.663Z,76.04
2019-03-02T08:27:07.875Z,75.76
2019-03-02T08:27:51.398Z,75.76
2019-03-02T08:28:34.667Z,75.67
2019-03-02T08:29:17.665Z,75.67
2019-03-02T08:29:58.970Z,75.67
2019-03-02T08:30:42.160Z,75.85
2019-03-02T08:31:23.863Z,76.04
2019-03-02T08:32:08.042Z,75.76
2019-03-02T08:32:53.878Z,76.04
2019-03-02T08:33:45.591Z,75.57
2019-03-02T08:34:19.721Z,75.57
2019-03-02T08:35:01.943Z,75.57
2019-03-02T08:35:43.249Z,75.67
2019-03-02T08:36:25.248Z,75.57
2019-03-02T08:37:10.210Z,75.47
2019-03-02T08:37:52.788Z,75.57
2019-03-02T08:38:35.668Z,75.57
2019-03-02T08:39:16.829Z,75.47
2019-03-02T08:40:01.944Z,75.47
2019-03-02T08:40:43.881Z,75.47
2019-03-02T08:41:26.109Z,77.18
2019-03-02T08:42:08.753Z,81.26
2019-03-02T08:42:51.452Z,84.49
2019-03-02T08:43:34.178Z,85.96
2019-03-02T08:44:18.703Z,83.97
2019-03-02T08:44:57.570Z,80.07
2019-03-02T08:45:40.983Z,78.36
2019-03-02T08:46:23.131Z,77.03
2019-03-02T08:47:09.044Z,75.6
2019-03-02T08:47:50.265Z,74.75
2019-03-02T08:48:31.897Z,73.9
2019-03-02T08:49:16.845Z,73.33
2019-03-02T08:49:59.114Z,73.61
2019-03-02T08:50:40.816Z,73.14
2019-03-02T08:51:23.473Z,72.85
2019-03-02T08:52:05.293Z,72.75